EWR weather

Newark Liberty International Airport
Newark, New Jersey, United States

Public forecast

Using degrees Fahrenheit for public forecast. Weather courtesy of forecast.io.

METAR (pilot weather report)

Retrieved 2019/04/21 10:51 UTC (1 hour ago):

KEWR 211051Z 08006KT 10SM BKN070 BKN200 12/09 A2992 RMK AO2 SLP131 T01220094

TAF (pilot weather forecast)

Retrieved 2019/04/21 06:28 UTC (5 hours ago):

TAF KEWR 210526Z 2106/2212 12007KT P6SM SCT050 BKN100 BKN250 FM210900 12005KT P6SM SCT050 SCT100 BKN250 FM211300 15006KT P6SM BKN100 FM211700 17009KT P6SM SCT100 BKN250 FM220200 14004KT P6SM BKN080 PROB30 2206/2212 2SM -SHRA OVC050